sensor_id;sensor_type;location;lat;lon;timestamp;P1;durP1;ratioP1;P2;durP2;ratioP2
15192;SDS011;7697;51.630;7.484;2023-02-01T00:02:49;16.57;;;8.90;;
15192;SDS011;7697;51.630;7.484;2023-02-01T00:07:50;15.93;;;8.73;;
15192;SDS011;7697;51.630;7.484;2023-02-01T00:12:53;17.10;;;8.50;;
15192;SDS011;7697;51.630;7.484;2023-02-01T00:17:55;16.57;;;8.63;;
15192;SDS011;7697;51.630;7.484;2023-02-01T00:22:57;13.77;;;8.40;;
15192;SDS011;7697;51.630;7.484;2023-02-01T00:28:00;15.33;;;8.20;;
15192;SDS011;7697;51.630;7.484;2023-02-01T00:33:01;17.77;;;9.37;;
15192;SDS011;7697;51.630;7.484;2023-02-01T00:38:03;19.90;;;9.03;;
15192;SDS011;7697;51.630;7.484;2023-02-01T00:43:06;15.13;;;7.63;;
15192;SDS011;7697;51.630;7.484;2023-02-01T00:48:08;15.60;;;7.10;;
15192;SDS011;7697;51.630;7.484;2023-02-01T00:53:10;13.40;;;7.13;;
15192;SDS011;7697;51.630;7.484;2023-02-01T00:58:13;12.97;;;5.87;;
15192;SDS011;7697;51.630;7.484;2023-02-01T01:03:15;15.23;;;5.47;;
15192;SDS011;7697;51.630;7.484;2023-02-01T01:08:19;11.60;;;4.83;;
15192;SDS011;7697;51.630;7.484;2023-02-01T01:13:22;10.93;;;4.50;;
15192;SDS011;7697;51.630;7.484;2023-02-01T01:18:24;12.32;;;4.07;;
15192;SDS011;7697;51.630;7.484;2023-02-01T01:23:27;11.55;;;3.60;;
15192;SDS011;7697;51.630;7.484;2023-02-01T01:28:30;12.77;;;4.30;;
15192;SDS011;7697;51.630;7.484;2023-02-01T01:33:31;16.97;;;4.20;;
15192;SDS011;7697;51.630;7.484;2023-02-01T01:38:34;10.60;;;3.40;;
15192;SDS011;7697;51.630;7.484;2023-02-01T01:43:53;9.23;;;3.43;;
15192;SDS011;7697;51.630;7.484;2023-02-01T01:48:58;9.57;;;3.00;;
15192;SDS011;7697;51.630;7.484;2023-02-01T01:54:07;15.63;;;3.30;;
15192;SDS011;7697;51.630;7.484;2023-02-01T01:59:14;11.07;;;3.37;;
15192;SDS011;7697;51.630;7.484;2023-02-01T02:04:16;10.27;;;3.10;;
15192;SDS011;7697;51.630;7.484;2023-02-01T02:09:18;13.27;;;3.25;;
15192;SDS011;7697;51.630;7.484;2023-02-01T02:14:22;7.03;;;2.70;;
15192;SDS011;7697;51.630;7.484;2023-02-01T02:25:36;10.83;;;3.10;;
15192;SDS011;7697;51.630;7.484;2023-02-01T02:30:55;11.38;;;3.35;;
15192;SDS011;7697;51.630;7.484;2023-02-01T02:36:15;9.80;;;2.83;;
15192;SDS011;7697;51.630;7.484;2023-02-01T02:41:26;13.37;;;3.57;;
15192;SDS011;7697;51.630;7.484;2023-02-01T02:46:49;13.07;;;3.70;;
15192;SDS011;7697;51.630;7.484;2023-02-01T02:52:12;10.88;;;3.17;;
15192;SDS011;7697;51.630;7.484;2023-02-01T02:57:36;7.85;;;3.13;;
15192;SDS011;7697;51.630;7.484;2023-02-01T03:02:58;15.03;;;3.53;;
15192;SDS011;7697;51.630;7.484;2023-02-01T03:08:19;11.48;;;3.10;;
15192;SDS011;7697;51.630;7.484;2023-02-01T03:13:24;7.83;;;3.17;;
15192;SDS011;7697;51.630;7.484;2023-02-01T03:18:34;13.38;;;3.63;;
15192;SDS011;7697;51.630;7.484;2023-02-01T03:23:43;10.07;;;3.63;;
15192;SDS011;7697;51.630;7.484;2023-02-01T03:28:49;10.63;;;3.33;;
15192;SDS011;7697;51.630;7.484;2023-02-01T03:33:56;10.13;;;3.08;;
15192;SDS011;7697;51.630;7.484;2023-02-01T03:39:02;15.90;;;3.60;;
15192;SDS011;7697;51.630;7.484;2023-02-01T03:44:10;10.98;;;2.70;;
15192;SDS011;7697;51.630;7.484;2023-02-01T03:49:17;15.77;;;3.60;;
15192;SDS011;7697;51.630;7.484;2023-02-01T03:54:24;11.33;;;3.47;;
15192;SDS011;7697;51.630;7.484;2023-02-01T03:59:27;11.43;;;2.92;;
15192;SDS011;7697;51.630;7.484;2023-02-01T04:04:28;11.07;;;3.13;;
15192;SDS011;7697;51.630;7.484;2023-02-01T04:09:32;17.57;;;3.73;;
15192;SDS011;7697;51.630;7.484;2023-02-01T04:14:33;13.90;;;3.00;;
15192;SDS011;7697;51.630;7.484;2023-02-01T04:19:35;12.87;;;3.20;;
15192;SDS011;7697;51.630;7.484;2023-02-01T04:24:38;14.73;;;3.93;;
15192;SDS011;7697;51.630;7.484;2023-02-01T04:29:40;14.13;;;3.20;;
15192;SDS011;7697;51.630;7.484;2023-02-01T04:34:43;11.85;;;3.20;;
15192;SDS011;7697;51.630;7.484;2023-02-01T04:39:46;12.98;;;3.90;;
15192;SDS011;7697;51.630;7.484;2023-02-01T04:44:47;14.68;;;3.58;;
15192;SDS011;7697;51.630;7.484;2023-02-01T04:49:49;9.68;;;3.58;;
15192;SDS011;7697;51.630;7.484;2023-02-01T04:54:52;13.68;;;3.95;;
15192;SDS011;7697;51.630;7.484;2023-02-01T04:59:57;12.57;;;3.30;;
15192;SDS011;7697;51.630;7.484;2023-02-01T05:04:59;14.30;;;3.92;;
15192;SDS011;7697;51.630;7.484;2023-02-01T05:10:02;16.05;;;3.85;;
15192;SDS011;7697;51.630;7.484;2023-02-01T05:15:04;9.77;;;3.08;;
15192;SDS011;7697;51.630;7.484;2023-02-01T05:20:07;10.57;;;3.45;;
15192;SDS011;7697;51.630;7.484;2023-02-01T05:25:11;12.43;;;3.60;;
15192;SDS011;7697;51.630;7.484;2023-02-01T05:30:13;9.83;;;2.73;;
15192;SDS011;7697;51.630;7.484;2023-02-01T05:35:15;10.20;;;3.23;;
15192;SDS011;7697;51.630;7.484;2023-02-01T05:40:18;12.13;;;3.57;;
15192;SDS011;7697;51.630;7.484;2023-02-01T05:45:20;12.40;;;3.97;;
15192;SDS011;7697;51.630;7.484;2023-02-01T05:50:22;17.75;;;3.97;;
15192;SDS011;7697;51.630;7.484;2023-02-01T05:55:25;13.68;;;3.75;;
15192;SDS011;7697;51.630;7.484;2023-02-01T06:00:26;13.60;;;3.38;;
15192;SDS011;7697;51.630;7.484;2023-02-01T06:05:28;11.67;;;3.40;;
15192;SDS011;7697;51.630;7.484;2023-02-01T06:10:31;15.73;;;3.63;;
15192;SDS011;7697;51.630;7.484;2023-02-01T06:15:33;15.82;;;3.63;;
15192;SDS011;7697;51.630;7.484;2023-02-01T06:20:37;20.98;;;4.25;;
15192;SDS011;7697;51.630;7.484;2023-02-01T06:25:40;12.07;;;3.67;;
15192;SDS011;7697;51.630;7.484;2023-02-01T06:30:42;14.35;;;3.70;;
15192;SDS011;7697;51.630;7.484;2023-02-01T06:35:46;12.73;;;3.40;;
15192;SDS011;7697;51.630;7.484;2023-02-01T06:40:52;14.55;;;3.65;;
15192;SDS011;7697;51.630;7.484;2023-02-01T06:45:58;17.70;;;3.33;;
15192;SDS011;7697;51.630;7.484;2023-02-01T06:51:01;11.73;;;3.10;;
15192;SDS011;7697;51.630;7.484;2023-02-01T06:56:04;17.27;;;3.73;;
15192;SDS011;7697;51.630;7.484;2023-02-01T07:01:06;10.47;;;3.33;;
15192;SDS011;7697;51.630;7.484;2023-02-01T07:06:09;11.27;;;3.63;;
15192;SDS011;7697;51.630;7.484;2023-02-01T07:11:13;13.85;;;3.60;;
15192;SDS011;7697;51.630;7.484;2023-02-01T07:16:17;11.03;;;3.50;;
15192;SDS011;7697;51.630;7.484;2023-02-01T07:21:19;18.13;;;3.83;;
15192;SDS011;7697;51.630;7.484;2023-02-01T07:26:23;11.98;;;3.70;;
15192;SDS011;7697;51.630;7.484;2023-02-01T07:31:25;15.47;;;3.73;;
15192;SDS011;7697;51.630;7.484;2023-02-01T07:36:29;16.87;;;4.10;;
15192;SDS011;7697;51.630;7.484;2023-02-01T07:41:32;14.93;;;4.17;;
15192;SDS011;7697;51.630;7.484;2023-02-01T07:46:33;14.43;;;3.87;;
15192;SDS011;7697;51.630;7.484;2023-02-01T07:51:36;15.17;;;3.67;;
15192;SDS011;7697;51.630;7.484;2023-02-01T07:56:39;13.43;;;4.10;;
15192;SDS011;7697;51.630;7.484;2023-02-01T08:01:41;16.13;;;4.07;;
15192;SDS011;7697;51.630;7.484;2023-02-01T08:06:43;15.60;;;4.07;;
15192;SDS011;7697;51.630;7.484;2023-02-01T08:11:46;13.57;;;4.07;;
15192;SDS011;7697;51.630;7.484;2023-02-01T08:16:48;17.37;;;4.20;;
15192;SDS011;7697;51.630;7.484;2023-02-01T08:21:49;17.88;;;5.45;;
15192;SDS011;7697;51.630;7.484;2023-02-01T08:26:52;11.77;;;4.00;;
15192;SDS011;7697;51.630;7.484;2023-02-01T08:31:54;10.63;;;3.42;;
15192;SDS011;7697;51.630;7.484;2023-02-01T08:36:55;15.10;;;3.90;;
15192;SDS011;7697;51.630;7.484;2023-02-01T08:42:02;13.87;;;4.00;;
15192;SDS011;7697;51.630;7.484;2023-02-01T08:47:22;15.45;;;4.15;;
15192;SDS011;7697;51.630;7.484;2023-02-01T08:52:23;14.27;;;4.10;;
15192;SDS011;7697;51.630;7.484;2023-02-01T08:57:27;13.98;;;3.97;;
15192;SDS011;7697;51.630;7.484;2023-02-01T09:02:28;13.07;;;3.63;;
15192;SDS011;7697;51.630;7.484;2023-02-01T09:07:30;13.57;;;4.03;;
15192;SDS011;7697;51.630;7.484;2023-02-01T09:12:34;10.80;;;3.58;;
15192;SDS011;7697;51.630;7.484;2023-02-01T09:17:36;15.75;;;3.97;;
15192;SDS011;7697;51.630;7.484;2023-02-01T09:22:38;12.73;;;4.10;;
15192;SDS011;7697;51.630;7.484;2023-02-01T09:27:42;15.48;;;4.40;;
15192;SDS011;7697;51.630;7.484;2023-02-01T09:32:43;14.52;;;4.63;;
15192;SDS011;7697;51.630;7.484;2023-02-01T09:37:45;14.75;;;4.18;;
15192;SDS011;7697;51.630;7.484;2023-02-01T09:42:52;18.77;;;5.10;;
15192;SDS011;7697;51.630;7.484;2023-02-01T09:48:17;16.92;;;4.75;;
15192;SDS011;7697;51.630;7.484;2023-02-01T09:53:24;16.92;;;4.13;;
15192;SDS011;7697;51.630;7.484;2023-02-01T09:58:32;14.35;;;4.07;;
15192;SDS011;7697;51.630;7.484;2023-02-01T10:03:36;13.27;;;4.13;;
15192;SDS011;7697;51.630;7.484;2023-02-01T10:08:41;11.60;;;4.22;;
15192;SDS011;7697;51.630;7.484;2023-02-01T10:14:02;11.52;;;4.03;;
15192;SDS011;7697;51.630;7.484;2023-02-01T10:19:23;15.02;;;4.57;;
15192;SDS011;7697;51.630;7.484;2023-02-01T10:24:37;16.17;;;4.40;;
15192;SDS011;7697;51.630;7.484;2023-02-01T10:29:44;14.43;;;4.30;;
15192;SDS011;7697;51.630;7.484;2023-02-01T10:34:50;12.52;;;4.20;;
15192;SDS011;7697;51.630;7.484;2023-02-01T10:39:57;12.45;;;4.82;;
15192;SDS011;7697;51.630;7.484;2023-02-01T10:45:02;15.15;;;4.85;;
15192;SDS011;7697;51.630;7.484;2023-02-01T10:50:08;13.10;;;4.75;;
15192;SDS011;7697;51.630;7.484;2023-02-01T11:00:47;12.85;;;4.13;;
15192;SDS011;7697;51.630;7.484;2023-02-01T11:05:54;20.20;;;5.07;;
15192;SDS011;7697;51.630;7.484;2023-02-01T11:10:57;11.02;;;4.25;;
15192;SDS011;7697;51.630;7.484;2023-02-01T11:16:02;12.52;;;4.18;;
15192;SDS011;7697;51.630;7.484;2023-02-01T11:21:06;15.13;;;4.28;;
15192;SDS011;7697;51.630;7.484;2023-02-01T11:26:11;11.02;;;3.65;;
15192;SDS011;7697;51.630;7.484;2023-02-01T11:31:16;12.65;;;3.92;;
15192;SDS011;7697;51.630;7.484;2023-02-01T11:36:18;11.65;;;3.92;;
15192;SDS011;7697;51.630;7.484;2023-02-01T11:41:25;16.58;;;4.13;;
15192;SDS011;7697;51.630;7.484;2023-02-01T11:46:31;13.40;;;3.83;;
15192;SDS011;7697;51.630;7.484;2023-02-01T11:51:37;14.13;;;4.10;;
15192;SDS011;7697;51.630;7.484;2023-02-01T11:56:49;12.52;;;3.97;;
15192;SDS011;7697;51.630;7.484;2023-02-01T12:02:07;14.40;;;4.47;;
15192;SDS011;7697;51.630;7.484;2023-02-01T12:07:33;16.58;;;4.20;;
15192;SDS011;7697;51.630;7.484;2023-02-01T12:12:51;16.38;;;4.45;;
15192;SDS011;7697;51.630;7.484;2023-02-01T12:18:11;12.95;;;3.90;;
15192;SDS011;7697;51.630;7.484;2023-02-01T12:23:35;11.70;;;4.13;;
15192;SDS011;7697;51.630;7.484;2023-02-01T12:28:52;14.23;;;5.28;;
15192;SDS011;7697;51.630;7.484;2023-02-01T12:40:00;16.38;;;5.10;;
15192;SDS011;7697;51.630;7.484;2023-02-01T12:45:13;15.25;;;4.35;;
15192;SDS011;7697;51.630;7.484;2023-02-01T12:50:29;11.90;;;3.85;;
15192;SDS011;7697;51.630;7.484;2023-02-01T12:55:38;15.70;;;3.83;;
15192;SDS011;7697;51.630;7.484;2023-02-01T13:00:49;19.58;;;5.60;;
15192;SDS011;7697;51.630;7.484;2023-02-01T13:05:58;16.73;;;3.88;;
15192;SDS011;7697;51.630;7.484;2023-02-01T13:11:06;19.00;;;4.70;;
15192;SDS011;7697;51.630;7.484;2023-02-01T13:16:15;15.43;;;4.43;;
15192;SDS011;7697;51.630;7.484;2023-02-01T13:21:25;13.73;;;3.97;;
15192;SDS011;7697;51.630;7.484;2023-02-01T13:26:30;13.48;;;2.80;;
15192;SDS011;7697;51.630;7.484;2023-02-01T13:37:01;8.48;;;3.10;;
15192;SDS011;7697;51.630;7.484;2023-02-01T13:42:15;13.95;;;3.63;;
15192;SDS011;7697;51.630;7.484;2023-02-01T13:47:22;15.95;;;3.55;;
15192;SDS011;7697;51.630;7.484;2023-02-01T13:52:35;12.90;;;3.90;;
15192;SDS011;7697;51.630;7.484;2023-02-01T13:57:40;12.75;;;3.35;;
15192;SDS011;7697;51.630;7.484;2023-02-01T14:02:48;13.50;;;3.38;;
15192;SDS011;7697;51.630;7.484;2023-02-01T14:08:14;14.77;;;3.42;;
15192;SDS011;7697;51.630;7.484;2023-02-01T14:13:26;9.85;;;2.92;;
15192;SDS011;7697;51.630;7.484;2023-02-01T14:24:00;13.55;;;3.13;;
15192;SDS011;7697;51.630;7.484;2023-02-01T14:29:09;14.93;;;4.07;;
15192;SDS011;7697;51.630;7.484;2023-02-01T14:34:26;10.27;;;3.10;;
15192;SDS011;7697;51.630;7.484;2023-02-01T14:39:38;12.52;;;3.90;;
15192;SDS011;7697;51.630;7.484;2023-02-01T14:44:54;16.80;;;3.72;;
15192;SDS011;7697;51.630;7.484;2023-02-01T14:49:58;10.75;;;3.42;;
15192;SDS011;7697;51.630;7.484;2023-02-01T14:55:13;14.27;;;3.47;;
15192;SDS011;7697;51.630;7.484;2023-02-01T15:00:20;18.40;;;4.32;;
15192;SDS011;7697;51.630;7.484;2023-02-01T15:05:29;12.32;;;3.22;;
15192;SDS011;7697;51.630;7.484;2023-02-01T15:10:39;11.60;;;3.13;;
15192;SDS011;7697;51.630;7.484;2023-02-01T15:15:44;11.75;;;3.65;;
15192;SDS011;7697;51.630;7.484;2023-02-01T15:20:50;13.15;;;3.15;;
15192;SDS011;7697;51.630;7.484;2023-02-01T15:25:59;13.27;;;2.88;;
15192;SDS011;7697;51.630;7.484;2023-02-01T15:31:01;13.88;;;3.50;;
15192;SDS011;7697;51.630;7.484;2023-02-01T15:36:08;12.20;;;3.22;;
15192;SDS011;7697;51.630;7.484;2023-02-01T15:41:14;10.35;;;3.17;;
15192;SDS011;7697;51.630;7.484;2023-02-01T15:46:17;13.25;;;3.80;;
15192;SDS011;7697;51.630;7.484;2023-02-01T15:51:24;10.80;;;3.40;;
15192;SDS011;7697;51.630;7.484;2023-02-01T15:56:33;12.15;;;3.97;;
15192;SDS011;7697;51.630;7.484;2023-02-01T16:01:36;13.48;;;3.05;;
15192;SDS011;7697;51.630;7.484;2023-02-01T16:06:44;13.38;;;3.67;;
15192;SDS011;7697;51.630;7.484;2023-02-01T16:11:52;17.23;;;3.33;;
15192;SDS011;7697;51.630;7.484;2023-02-01T16:16:57;16.13;;;3.50;;
15192;SDS011;7697;51.630;7.484;2023-02-01T16:21:59;11.75;;;3.30;;
15192;SDS011;7697;51.630;7.484;2023-02-01T16:27:02;9.75;;;2.80;;
15192;SDS011;7697;51.630;7.484;2023-02-01T16:32:05;16.55;;;3.83;;
15192;SDS011;7697;51.630;7.484;2023-02-01T16:37:08;16.73;;;3.60;;
15192;SDS011;7697;51.630;7.484;2023-02-01T16:42:15;13.48;;;3.50;;
15192;SDS011;7697;51.630;7.484;2023-02-01T16:47:17;14.02;;;3.97;;
15192;SDS011;7697;51.630;7.484;2023-02-01T16:52:21;14.60;;;3.38;;
15192;SDS011;7697;51.630;7.484;2023-02-01T16:57:26;7.78;;;2.95;;
15192;SDS011;7697;51.630;7.484;2023-02-01T17:02:29;9.90;;;2.80;;
15192;SDS011;7697;51.630;7.484;2023-02-01T17:07:31;5.57;;;2.10;;
15192;SDS011;7697;51.630;7.484;2023-02-01T17:12:34;5.82;;;1.65;;
15192;SDS011;7697;51.630;7.484;2023-02-01T17:17:37;5.35;;;2.00;;
15192;SDS011;7697;51.630;7.484;2023-02-01T17:22:42;5.90;;;2.22;;
15192;SDS011;7697;51.630;7.484;2023-02-01T17:27:45;5.10;;;2.00;;
15192;SDS011;7697;51.630;7.484;2023-02-01T17:32:46;8.15;;;2.83;;
15192;SDS011;7697;51.630;7.484;2023-02-01T17:37:50;10.75;;;4.80;;
15192;SDS011;7697;51.630;7.484;2023-02-01T17:42:54;13.30;;;5.05;;
15192;SDS011;7697;51.630;7.484;2023-02-01T17:47:56;9.90;;;3.50;;
15192;SDS011;7697;51.630;7.484;2023-02-01T17:52:58;9.95;;;4.15;;
15192;SDS011;7697;51.630;7.484;2023-02-01T17:58:01;9.52;;;4.03;;
15192;SDS011;7697;51.630;7.484;2023-02-01T18:03:03;8.15;;;3.75;;
15192;SDS011;7697;51.630;7.484;2023-02-01T18:08:05;7.40;;;3.17;;
15192;SDS011;7697;51.630;7.484;2023-02-01T18:13:09;8.03;;;2.47;;
15192;SDS011;7697;51.630;7.484;2023-02-01T18:18:12;8.93;;;2.67;;
15192;SDS011;7697;51.630;7.484;2023-02-01T18:23:14;8.60;;;3.40;;
15192;SDS011;7697;51.630;7.484;2023-02-01T18:28:19;6.70;;;1.95;;
15192;SDS011;7697;51.630;7.484;2023-02-01T18:33:21;4.43;;;1.70;;
15192;SDS011;7697;51.630;7.484;2023-02-01T18:38:23;4.15;;;1.52;;
15192;SDS011;7697;51.630;7.484;2023-02-01T18:43:26;2.05;;;1.50;;
15192;SDS011;7697;51.630;7.484;2023-02-01T18:48:28;3.07;;;1.50;;
15192;SDS011;7697;51.630;7.484;2023-02-01T18:53:30;2.50;;;1.60;;
15192;SDS011;7697;51.630;7.484;2023-02-01T18:58:33;5.40;;;1.90;;
15192;SDS011;7697;51.630;7.484;2023-02-01T19:03:35;4.10;;;1.80;;
15192;SDS011;7697;51.630;7.484;2023-02-01T19:08:37;4.10;;;1.83;;
15192;SDS011;7697;51.630;7.484;2023-02-01T19:13:40;7.28;;;2.10;;
15192;SDS011;7697;51.630;7.484;2023-02-01T19:18:41;7.90;;;2.10;;
15192;SDS011;7697;51.630;7.484;2023-02-01T19:23:43;4.00;;;1.90;;
15192;SDS011;7697;51.630;7.484;2023-02-01T19:28:46;6.88;;;2.40;;
15192;SDS011;7697;51.630;7.484;2023-02-01T19:33:48;6.10;;;2.60;;
15192;SDS011;7697;51.630;7.484;2023-02-01T19:38:49;7.28;;;2.90;;
15192;SDS011;7697;51.630;7.484;2023-02-01T19:43:52;6.23;;;3.10;;
15192;SDS011;7697;51.630;7.484;2023-02-01T19:48:54;8.37;;;3.67;;
15192;SDS011;7697;51.630;7.484;2023-02-01T19:53:56;7.33;;;3.67;;
15192;SDS011;7697;51.630;7.484;2023-02-01T19:58:59;6.93;;;3.15;;
15192;SDS011;7697;51.630;7.484;2023-02-01T20:04:01;7.10;;;2.92;;
15192;SDS011;7697;51.630;7.484;2023-02-01T20:09:02;8.17;;;3.33;;
15192;SDS011;7697;51.630;7.484;2023-02-01T20:14:07;6.43;;;2.67;;
15192;SDS011;7697;51.630;7.484;2023-02-01T20:19:09;9.90;;;3.30;;
15192;SDS011;7697;51.630;7.484;2023-02-01T20:24:13;9.53;;;2.83;;
15192;SDS011;7697;51.630;7.484;2023-02-01T20:29:18;5.53;;;2.20;;
15192;SDS011;7697;51.630;7.484;2023-02-01T20:34:19;5.97;;;2.17;;
15192;SDS011;7697;51.630;7.484;2023-02-01T20:39:21;9.23;;;3.20;;
15192;SDS011;7697;51.630;7.484;2023-02-01T20:44:24;7.23;;;3.00;;
15192;SDS011;7697;51.630;7.484;2023-02-01T20:49:29;6.07;;;2.25;;
15192;SDS011;7697;51.630;7.484;2023-02-01T20:54:31;7.15;;;2.00;;
15192;SDS011;7697;51.630;7.484;2023-02-01T20:59:34;7.60;;;2.23;;
15192;SDS011;7697;51.630;7.484;2023-02-01T21:04:35;7.07;;;2.00;;
15192;SDS011;7697;51.630;7.484;2023-02-01T21:09:37;5.03;;;1.70;;
15192;SDS011;7697;51.630;7.484;2023-02-01T21:14:41;4.07;;;1.90;;
15192;SDS011;7697;51.630;7.484;2023-02-01T21:19:43;5.80;;;2.00;;
15192;SDS011;7697;51.630;7.484;2023-02-01T21:24:45;5.03;;;1.80;;
15192;SDS011;7697;51.630;7.484;2023-02-01T21:29:48;9.10;;;1.90;;
15192;SDS011;7697;51.630;7.484;2023-02-01T21:34:50;4.07;;;1.70;;
15192;SDS011;7697;51.630;7.484;2023-02-01T21:39:52;5.23;;;1.67;;
15192;SDS011;7697;51.630;7.484;2023-02-01T21:44:56;5.37;;;1.90;;
15192;SDS011;7697;51.630;7.484;2023-02-01T21:49:58;5.30;;;1.80;;
15192;SDS011;7697;51.630;7.484;2023-02-01T21:55:00;5.03;;;1.27;;
15192;SDS011;7697;51.630;7.484;2023-02-01T22:00:04;5.13;;;1.57;;
15192;SDS011;7697;51.630;7.484;2023-02-01T22:05:07;4.72;;;1.60;;
15192;SDS011;7697;51.630;7.484;2023-02-01T22:10:10;5.27;;;1.60;;
15192;SDS011;7697;51.630;7.484;2023-02-01T22:15:14;6.72;;;1.50;;
15192;SDS011;7697;51.630;7.484;2023-02-01T22:20:16;9.10;;;2.58;;
15192;SDS011;7697;51.630;7.484;2023-02-01T22:25:18;8.40;;;1.63;;
15192;SDS011;7697;51.630;7.484;2023-02-01T22:30:21;5.57;;;1.40;;
15192;SDS011;7697;51.630;7.484;2023-02-01T22:35:23;3.63;;;1.60;;
15192;SDS011;7697;51.630;7.484;2023-02-01T22:40:25;4.33;;;1.30;;
15192;SDS011;7697;51.630;7.484;2023-02-01T22:45:28;6.17;;;1.93;;
15192;SDS011;7697;51.630;7.484;2023-02-01T22:50:30;5.63;;;1.73;;
15192;SDS011;7697;51.630;7.484;2023-02-01T22:55:32;5.82;;;1.63;;
15192;SDS011;7697;51.630;7.484;2023-02-01T23:00:35;7.50;;;1.97;;
15192;SDS011;7697;51.630;7.484;2023-02-01T23:05:37;4.23;;;1.80;;
15192;SDS011;7697;51.630;7.484;2023-02-01T23:10:38;2.80;;;1.40;;
15192;SDS011;7697;51.630;7.484;2023-02-01T23:15:41;3.63;;;1.50;;
15192;SDS011;7697;51.630;7.484;2023-02-01T23:20:43;4.50;;;1.70;;
15192;SDS011;7697;51.630;7.484;2023-02-01T23:25:47;4.18;;;1.33;;
15192;SDS011;7697;51.630;7.484;2023-02-01T23:30:51;2.58;;;1.17;;
15192;SDS011;7697;51.630;7.484;2023-02-01T23:35:54;4.13;;;1.73;;
15192;SDS011;7697;51.630;7.484;2023-02-01T23:41:00;3.30;;;1.33;;
15192;SDS011;7697;51.630;7.484;2023-02-01T23:46:04;6.43;;;1.70;;
15192;SDS011;7697;51.630;7.484;2023-02-01T23:51:05;6.55;;;1.65;;
15192;SDS011;7697;51.630;7.484;2023-02-01T23:56:14;7.03;;;1.83;;
